createdAt,value
2022-11-03T00:00:36.561Z,7.88
2022-11-03T00:03:03.528Z,15.63
2022-11-03T00:10:39.763Z,12.00
2022-11-03T00:13:06.676Z,13.15
2022-11-03T00:15:33.603Z,10.98
2022-11-03T00:18:00.294Z,12.02
2022-11-03T00:20:26.897Z,9.82
2022-11-03T00:22:53.563Z,12.68
2022-11-03T00:25:20.189Z,10.73
2022-11-03T00:27:46.765Z,16.90
2022-11-03T00:30:13.516Z,14.48
2022-11-03T00:32:40.116Z,6.93
2022-11-03T00:35:06.904Z,14.20
2022-11-03T00:37:33.524Z,14.13
2022-11-03T00:40:00.111Z,10.55
2022-11-03T00:42:26.675Z,14.18
2022-11-03T00:44:53.325Z,15.18
2022-11-03T00:47:23.295Z,9.98
2022-11-03T00:49:51.012Z,10.57
2022-11-03T00:52:17.612Z,12.23
2022-11-03T00:54:45.541Z,8.38
2022-11-03T01:07:12.661Z,10.35
2022-11-03T01:09:40.373Z,9.25
2022-11-03T01:12:06.935Z,10.70
2022-11-03T01:17:13.428Z,7.25
2022-11-03T01:19:40.087Z,11.25
2022-11-03T01:22:10.558Z,10.07
2022-11-03T01:24:38.014Z,11.98
2022-11-03T01:27:04.602Z,9.43
2022-11-03T01:31:56.726Z,9.70
2022-11-03T01:34:23.348Z,10.73
2022-11-03T01:36:50.083Z,10.73
2022-11-03T01:39:18.059Z,9.57
2022-11-03T01:41:45.872Z,9.20
2022-11-03T01:44:12.506Z,10.52
2022-11-03T01:46:43.148Z,9.02
2022-11-03T01:49:36.011Z,10.27
2022-11-03T01:52:08.601Z,5.60
2022-11-03T01:54:36.516Z,11.60
2022-11-03T01:57:05.204Z,9.25
2022-11-03T01:59:31.970Z,6.28
2022-11-03T02:01:58.736Z,6.30
2022-11-03T02:04:30.375Z,9.95
2022-11-03T02:09:48.633Z,12.30
2022-11-03T02:12:16.373Z,10.63
2022-11-03T02:22:25.006Z,9.18
2022-11-03T02:24:57.709Z,13.43
2022-11-03T02:27:24.387Z,10.02
2022-11-03T02:29:51.039Z,9.85
2022-11-03T02:32:29.902Z,5.32
2022-11-03T02:35:02.444Z,10.35
2022-11-03T02:37:36.779Z,10.23
2022-11-03T02:40:13.727Z,10.90
2022-11-03T02:42:42.957Z,7.07
2022-11-03T02:45:13.317Z,9.35
2022-11-03T02:47:43.276Z,7.25
2022-11-03T02:50:13.576Z,9.60
2022-11-03T02:52:40.527Z,6.82
2022-11-03T02:57:55.852Z,6.13
2022-11-03T03:00:22.667Z,8.13
2022-11-03T03:02:52.124Z,10.50
2022-11-03T03:15:56.492Z,7.13
2022-11-03T03:18:27.904Z,7.68
2022-11-03T03:20:54.505Z,10.30
2022-11-03T03:23:24.995Z,6.28
2022-11-03T03:28:46.228Z,7.72
2022-11-03T03:31:14.432Z,7.47
2022-11-03T03:33:44.975Z,5.80
2022-11-03T03:46:31.465Z,4.75
2022-11-03T03:48:58.152Z,9.77
2022-11-03T03:52:14.337Z,5.68
2022-11-03T03:54:41.136Z,7.70
2022-11-03T03:57:10.190Z,8.02
2022-11-03T03:59:36.732Z,5.55
2022-11-03T04:04:28.897Z,7.20
2022-11-03T04:07:15.488Z,7.07
2022-11-03T04:09:42.146Z,10.23
2022-11-03T04:12:27.568Z,9.05
2022-11-03T04:15:12.874Z,6.45
2022-11-03T04:18:05.236Z,7.90
2022-11-03T04:20:51.139Z,3.90
2022-11-03T04:28:19.920Z,8.70
2022-11-03T04:30:46.640Z,8.55
2022-11-03T04:33:17.430Z,8.25
2022-11-03T04:35:44.548Z,7.40
2022-11-03T04:38:13.932Z,6.70
2022-11-03T04:40:46.202Z,10.05
2022-11-03T04:43:14.305Z,10.02
2022-11-03T04:45:42.725Z,6.40
2022-11-03T04:51:16.450Z,6.35
2022-11-03T04:53:46.556Z,4.90
2022-11-03T04:56:14.911Z,5.43
2022-11-03T04:58:41.550Z,8.00
2022-11-03T05:01:12.534Z,7.32
2022-11-03T05:03:41.157Z,8.50
2022-11-03T05:11:30.700Z,6.65
2022-11-03T05:14:01.827Z,8.00
2022-11-03T05:16:28.639Z,8.88
2022-11-03T05:18:55.419Z,5.88
2022-11-03T05:21:22.685Z,10.13
2022-11-03T05:24:26.808Z,6.55
2022-11-03T05:29:22.706Z,8.20
2022-11-03T05:31:50.988Z,7.43
2022-11-03T05:34:32.689Z,7.57
2022-11-03T05:37:00.322Z,7.82
2022-11-03T05:39:26.877Z,8.32
2022-11-03T05:41:53.560Z,8.07
2022-11-03T05:44:33.874Z,9.07
2022-11-03T05:51:53.124Z,7.25
2022-11-03T05:54:23.816Z,16.45
2022-11-03T05:56:50.401Z,8.07
2022-11-03T06:01:45.573Z,10.32
2022-11-03T06:06:50.328Z,7.90
2022-11-03T06:09:18.920Z,7.38
2022-11-03T06:14:16.551Z,8.60
2022-11-03T06:16:56.560Z,7.28
2022-11-03T06:19:43.043Z,7.00
2022-11-03T06:22:20.294Z,10.43
2022-11-03T06:24:47.201Z,5.72
2022-11-03T06:27:18.984Z,8.13
2022-11-03T06:32:43.478Z,16.63
2022-11-03T06:35:12.122Z,8.65
2022-11-03T06:37:38.958Z,10.05
2022-11-03T06:40:11.427Z,9.82
2022-11-03T06:42:39.939Z,11.30
2022-11-03T06:48:29.620Z,16.63
2022-11-03T06:50:56.970Z,11.77
2022-11-03T06:53:25.208Z,7.82
2022-11-03T06:55:52.090Z,9.63
2022-11-03T06:58:27.717Z,4.95
2022-11-03T07:01:02.667Z,11.38
2022-11-03T07:03:35.187Z,12.23
2022-11-03T07:08:50.115Z,6.95
2022-11-03T07:11:23.493Z,11.70
2022-11-03T07:13:51.681Z,8.27
2022-11-03T07:16:38.554Z,9.70
2022-11-03T07:19:10.169Z,12.45
2022-11-03T07:27:17.040Z,9.13
2022-11-03T07:29:45.011Z,9.13
2022-11-03T07:32:31.506Z,5.50
2022-11-03T07:37:30.565Z,8.43
2022-11-03T07:39:57.836Z,12.63
2022-11-03T07:42:25.868Z,11.57
2022-11-03T07:44:55.810Z,5.97
2022-11-03T07:47:25.765Z,10.95
2022-11-03T07:49:52.663Z,9.02
2022-11-03T07:52:21.056Z,12.30
2022-11-03T07:54:48.208Z,7.28
2022-11-03T07:57:19.545Z,9.13
2022-11-03T07:59:47.664Z,7.15
2022-11-03T08:02:26.559Z,12.70
2022-11-03T08:04:53.312Z,12.30
2022-11-03T08:07:19.902Z,7.60
2022-11-03T08:09:46.450Z,9.75
2022-11-03T08:12:13.213Z,12.90
2022-11-03T08:14:39.844Z,12.88
2022-11-03T08:17:06.529Z,9.35
2022-11-03T08:21:58.757Z,9.77
2022-11-03T08:24:25.390Z,8.23
2022-11-03T08:26:52.002Z,10.35
2022-11-03T08:29:18.948Z,12.88
2022-11-03T08:31:45.526Z,8.57
2022-11-03T08:34:12.108Z,7.78
2022-11-03T08:36:38.860Z,6.97
2022-11-03T08:39:05.505Z,7.45
2022-11-03T08:43:57.538Z,10.20
2022-11-03T08:46:24.165Z,8.50
2022-11-03T08:48:51.995Z,10.82
2022-11-03T08:51:18.717Z,5.97
2022-11-03T08:53:46.875Z,10.73
2022-11-03T08:58:39.028Z,9.13
2022-11-03T09:01:05.788Z,9.88
2022-11-03T09:03:32.471Z,8.30
2022-11-03T09:05:59.127Z,12.15
2022-11-03T09:13:37.759Z,7.50
2022-11-03T09:16:04.543Z,12.77
2022-11-03T09:18:32.330Z,13.20
2022-11-03T09:20:58.917Z,9.38
2022-11-03T09:23:59.421Z,6.93
2022-11-03T09:26:29.132Z,10.30
2022-11-03T09:28:55.796Z,5.45
2022-11-03T09:31:23.582Z,7.72
2022-11-03T09:33:50.276Z,11.50
2022-11-03T09:36:17.119Z,7.68
2022-11-03T09:38:43.710Z,8.35
2022-11-03T09:41:26.749Z,10.25
2022-11-03T09:44:04.518Z,9.98
2022-11-03T09:46:31.290Z,11.57
2022-11-03T09:48:58.653Z,8.18
2022-11-03T09:56:58.876Z,3.22
2022-11-03T09:59:25.500Z,3.40
2022-11-03T10:02:14.902Z,1.42
2022-11-03T10:04:41.595Z,3.58
2022-11-03T10:07:08.687Z,3.05
2022-11-03T10:19:58.098Z,0.68
2022-11-03T10:22:24.864Z,2.15
2022-11-03T10:25:11.485Z,2.28
2022-11-03T10:27:38.110Z,2.17
2022-11-03T10:30:09.942Z,2.15
2022-11-03T10:35:41.879Z,2.97
2022-11-03T10:38:40.969Z,2.38
2022-11-03T10:41:10.570Z,1.15
2022-11-03T10:43:37.744Z,1.13
2022-11-03T10:46:36.693Z,1.63
2022-11-03T10:49:16.456Z,0.68
2022-11-03T10:54:11.495Z,2.33
2022-11-03T10:56:38.276Z,2.03
2022-11-03T10:59:04.908Z,1.58
2022-11-03T11:01:31.738Z,3.08
2022-11-03T11:03:58.594Z,4.90
2022-11-03T11:09:00.104Z,1.15
2022-11-03T11:11:26.903Z,4.28
2022-11-03T11:14:12.081Z,1.25
2022-11-03T11:16:47.596Z,1.00
2022-11-03T11:21:39.726Z,3.10
2022-11-03T11:24:12.292Z,2.13
2022-11-03T11:26:39.793Z,1.92
2022-11-03T11:29:09.309Z,2.08
2022-11-03T11:31:36.633Z,1.92
2022-11-03T11:34:09.201Z,2.20
2022-11-03T11:36:40.511Z,1.95
2022-11-03T11:44:50.907Z,2.47
2022-11-03T11:47:29.374Z,2.50
2022-11-03T11:57:57.267Z,4.28
2022-11-03T12:00:28.550Z,1.83
2022-11-03T12:02:55.389Z,2.00
2022-11-03T12:05:23.405Z,3.38
2022-11-03T12:07:50.373Z,2.85
2022-11-03T12:15:29.217Z,2.40
2022-11-03T12:17:55.866Z,2.83
2022-11-03T12:23:01.398Z,1.70
2022-11-03T12:25:36.266Z,12.27
2022-11-03T12:30:28.450Z,4.78
2022-11-03T12:32:55.238Z,2.65
2022-11-03T12:35:21.917Z,4.25
2022-11-03T12:37:48.527Z,9.77
2022-11-03T12:40:15.260Z,13.65
2022-11-03T12:42:41.917Z,6.47
2022-11-03T12:47:34.432Z,1.55
2022-11-03T12:50:01.075Z,1.95
2022-11-03T12:52:27.673Z,2.08
2022-11-03T12:54:54.326Z,2.03
2022-11-03T12:57:20.917Z,2.42
2022-11-03T12:59:47.549Z,3.47
2022-11-03T13:02:14.281Z,1.65
2022-11-03T13:04:43.186Z,1.90
2022-11-03T13:07:09.859Z,1.92
2022-11-03T13:09:36.707Z,1.38
2022-11-03T13:12:21.771Z,2.85
2022-11-03T13:19:39.269Z,1.52
2022-11-03T13:22:05.947Z,1.63
2022-11-03T13:24:32.626Z,1.00
2022-11-03T13:26:59.194Z,1.65
2022-11-03T13:29:26.744Z,2.88
2022-11-03T13:31:54.678Z,1.05
2022-11-03T13:34:21.291Z,2.13
2022-11-03T13:36:47.945Z,0.93
2022-11-03T13:39:14.529Z,1.02
2022-11-03T13:41:41.213Z,4.05
2022-11-03T13:46:34.464Z,2.47
2022-11-03T13:51:47.690Z,4.75
2022-11-03T13:59:48.161Z,4.47
2022-11-03T14:07:13.847Z,3.78
2022-11-03T14:12:25.139Z,2.15
2022-11-03T14:14:51.784Z,2.97
2022-11-03T14:17:18.409Z,1.83
2022-11-03T14:19:50.166Z,5.05
2022-11-03T14:22:19.482Z,4.72
2022-11-03T14:24:46.217Z,5.63
2022-11-03T14:27:13.131Z,5.22
2022-11-03T14:29:39.792Z,6.13
2022-11-03T14:36:57.457Z,6.10
2022-11-03T14:42:04.935Z,13.38
2022-11-03T14:44:32.757Z,10.45
2022-11-03T14:47:01.537Z,6.60
2022-11-03T14:49:32.052Z,12.70
2022-11-03T14:56:51.007Z,7.30
2022-11-03T14:59:17.845Z,11.23
2022-11-03T15:01:44.865Z,10.73
2022-11-03T15:04:13.118Z,10.73
2022-11-03T15:06:43.214Z,7.10
2022-11-03T15:09:09.971Z,7.13
2022-11-03T15:11:38.664Z,8.13
2022-11-03T15:16:31.406Z,9.68
2022-11-03T15:18:59.296Z,7.68
2022-11-03T15:21:26.267Z,9.55
2022-11-03T15:29:50.089Z,7.03
2022-11-03T15:32:17.091Z,6.70
2022-11-03T15:34:43.820Z,10.80
2022-11-03T15:37:10.774Z,10.85
2022-11-03T15:39:38.956Z,10.48
2022-11-03T15:42:05.751Z,7.78
2022-11-03T15:44:32.492Z,10.95
2022-11-03T15:49:24.923Z,13.65
2022-11-03T15:51:52.037Z,9.52
2022-11-03T15:54:18.938Z,9.93
2022-11-03T15:56:46.173Z,9.88
2022-11-03T15:59:13.189Z,13.50
2022-11-03T16:01:40.217Z,11.45
2022-11-03T16:08:59.093Z,16.95
2022-11-03T16:11:26.081Z,14.77
2022-11-03T16:13:52.918Z,12.35
2022-11-03T16:16:19.678Z,11.65
2022-11-03T16:21:13.707Z,13.57
2022-11-03T16:23:40.949Z,9.35
2022-11-03T16:26:09.032Z,11.30
2022-11-03T16:28:35.947Z,11.60
2022-11-03T16:31:04.166Z,10.30
2022-11-03T16:33:33.092Z,13.07
2022-11-03T16:35:59.734Z,6.95
2022-11-03T16:38:26.390Z,11.73
2022-11-03T16:43:18.459Z,7.80
2022-11-03T16:45:45.205Z,6.95
2022-11-03T16:48:11.829Z,8.32
2022-11-03T16:50:41.465Z,12.75
2022-11-03T16:53:11.215Z,8.43
2022-11-03T16:55:38.976Z,9.75
2022-11-03T16:58:05.624Z,9.73
2022-11-03T17:00:32.272Z,8.73
2022-11-03T17:05:44.482Z,11.27
2022-11-03T17:08:38.642Z,6.93
2022-11-03T17:15:49.643Z,7.63
2022-11-03T17:18:16.293Z,10.27
2022-11-03T17:20:42.943Z,10.35
2022-11-03T17:25:35.145Z,6.85
2022-11-03T17:28:03.015Z,10.13
2022-11-03T17:32:59.153Z,11.38
2022-11-03T17:37:56.520Z,6.70
2022-11-03T17:40:25.252Z,8.00
2022-11-03T17:42:52.021Z,9.32
2022-11-03T17:45:19.940Z,8.27
2022-11-03T17:47:46.902Z,10.23
2022-11-03T17:52:40.494Z,10.65
2022-11-03T17:55:15.933Z,6.95
2022-11-03T18:00:14.665Z,8.32
2022-11-03T18:02:41.411Z,8.73
2022-11-03T18:05:14.092Z,6.97
2022-11-03T18:07:43.661Z,8.25
2022-11-03T18:12:56.086Z,6.32
2022-11-03T18:17:49.867Z,7.80
2022-11-03T18:25:23.100Z,11.23
2022-11-03T18:27:49.718Z,9.35
2022-11-03T18:30:16.935Z,13.27
2022-11-03T18:32:45.719Z,12.90
2022-11-03T18:35:17.330Z,8.90
2022-11-03T18:37:45.338Z,8.48
2022-11-03T18:40:12.758Z,8.85
2022-11-03T18:42:39.495Z,8.52
2022-11-03T18:45:10.758Z,10.98
2022-11-03T18:47:37.527Z,14.18
2022-11-03T18:52:30.186Z,8.63
2022-11-03T18:54:56.944Z,7.40
2022-11-03T18:57:25.493Z,7.50
2022-11-03T19:02:21.948Z,7.75
2022-11-03T19:04:49.141Z,7.50
2022-11-03T19:07:36.037Z,7.55
2022-11-03T19:10:07.853Z,7.35
2022-11-03T19:12:39.140Z,5.65
2022-11-03T19:20:35.220Z,12.52
2022-11-03T19:23:01.944Z,13.75
2022-11-03T19:25:28.668Z,9.07
2022-11-03T19:32:48.311Z,7.55
2022-11-03T19:35:20.620Z,6.18
2022-11-03T19:37:49.221Z,12.32
2022-11-03T19:40:16.968Z,10.93
2022-11-03T19:42:45.156Z,10.70
2022-11-03T19:45:16.222Z,12.25
2022-11-03T19:48:10.563Z,10.63
2022-11-03T19:50:36.294Z,11.90
2022-11-03T19:53:04.272Z,11.85
2022-11-03T19:55:38.999Z,9.95
2022-11-03T19:58:12.263Z,9.05
2022-11-03T20:00:39.547Z,11.20
2022-11-03T20:03:06.479Z,14.05
2022-11-03T20:05:33.410Z,8.65
2022-11-03T20:08:01.532Z,10.73
2022-11-03T20:10:31.642Z,10.65
2022-11-03T20:15:27.109Z,15.70
2022-11-03T20:17:53.669Z,9.65
2022-11-03T20:20:22.020Z,11.93
2022-11-03T20:27:46.946Z,9.95
2022-11-03T20:35:13.463Z,12.35
2022-11-03T20:37:40.463Z,8.50
2022-11-03T20:40:10.894Z,10.18
2022-11-03T20:42:38.197Z,15.27
2022-11-03T20:47:36.168Z,11.68
2022-11-03T20:50:02.797Z,12.32
2022-11-03T20:52:29.399Z,14.02
2022-11-03T20:54:56.009Z,10.57
2022-11-03T20:57:22.665Z,6.43
2022-11-03T20:59:49.294Z,6.03
2022-11-03T21:02:16.009Z,7.20
2022-11-03T21:04:43.952Z,9.65
2022-11-03T21:07:12.053Z,9.70
2022-11-03T21:09:38.727Z,9.10
2022-11-03T21:12:05.611Z,10.52
2022-11-03T21:14:33.168Z,9.32
2022-11-03T21:17:18.188Z,8.82
2022-11-03T21:20:07.929Z,12.38
2022-11-03T21:22:51.963Z,12.82
2022-11-03T21:25:20.209Z,8.63
2022-11-03T21:27:47.590Z,11.35
2022-11-03T21:30:14.799Z,11.15
2022-11-03T21:32:41.657Z,8.95
2022-11-03T21:40:02.564Z,10.07
2022-11-03T21:45:13.479Z,16.00
2022-11-03T21:48:00.420Z,13.07
2022-11-03T21:50:27.036Z,6.13
2022-11-03T21:52:53.618Z,11.88
2022-11-03T21:55:20.437Z,11.35
2022-11-03T21:57:47.056Z,14.07
2022-11-03T22:00:14.003Z,12.82
2022-11-03T22:05:10.670Z,11.15
2022-11-03T22:07:37.662Z,12.43
2022-11-03T22:12:30.348Z,9.57
2022-11-03T22:15:15.332Z,7.70
2022-11-03T22:17:43.763Z,14.35
2022-11-03T22:20:28.995Z,11.85
2022-11-03T22:23:14.385Z,15.85
2022-11-03T22:25:59.305Z,12.48
2022-11-03T22:28:25.956Z,10.50
2022-11-03T22:33:56.279Z,10.57
2022-11-03T22:36:25.655Z,17.92
2022-11-03T22:41:54.742Z,3.58
2022-11-03T22:44:39.758Z,6.68
2022-11-03T22:51:57.128Z,7.30
2022-11-03T22:56:49.241Z,6.40
2022-11-03T22:59:15.873Z,7.85
2022-11-03T23:01:42.569Z,5.55
2022-11-03T23:04:09.349Z,9.23
2022-11-03T23:06:37.853Z,6.05
2022-11-03T23:11:32.690Z,11.95
2022-11-03T23:14:00.400Z,5.57
2022-11-03T23:16:28.183Z,8.15
2022-11-03T23:19:14.213Z,12.88
2022-11-03T23:21:40.970Z,13.60
2022-11-03T23:24:26.267Z,9.48
2022-11-03T23:26:52.950Z,6.78
2022-11-03T23:29:19.540Z,7.32
2022-11-03T23:34:29.240Z,6.22
2022-11-03T23:36:56.084Z,7.20
2022-11-03T23:39:22.912Z,11.35
2022-11-03T23:41:52.916Z,9.75
2022-11-03T23:44:19.552Z,6.40
2022-11-03T23:47:04.667Z,9.65
2022-11-03T23:49:31.348Z,7.75
2022-11-03T23:51:57.938Z,5.78
2022-11-03T23:57:08.514Z,9.73
